Terminal Aerodrome Forecast
Issued by NWS

Home | Current Version | Previous Version | Text Only | Print | Product List | Glossary On
Versions: 1 2 3 4 5 6 7 8 9 10 11 12 13 14 15 16 17 18 19 20
229
FTUS44 KTSA 051614 AAB
TAFRVS
TAF AMD
KRVS 051614Z 0516/0612 15006KT P6SM SCT040 BKN150
      TEMPO 0516/0518 3SM BR BKN002
     FM052200 16009KT P6SM SCT030 BKN120
     FM060100 15004KT P6SM BKN050 OVC100
     FM060800 36005KT 4SM BR OVC025=

USA.gov is the U.S. government's official web portal to all federal, state and local government web resources and services.